createdAt,value
2018-08-25T09:03:38.853Z,996.1
2018-08-25T09:05:47.331Z,996.1
2018-08-25T09:15:47.881Z,996.1
2018-08-25T09:25:49.743Z,996.1
2018-08-25T09:35:51.161Z,996.4
2018-08-25T09:40:55.432Z,996.6
2018-08-25T09:48:34.397Z,996.6
2018-08-25T09:58:37.033Z,996.6
2018-08-25T09:59:22.822Z,996.6
2018-08-25T10:09:23.041Z,996.9
2018-08-25T10:19:25.167Z,997
2018-08-25T10:29:26.657Z,997
2018-08-25T10:39:28.381Z,997
2018-08-25T10:49:30.387Z,997
2018-08-25T10:59:32.286Z,997
2018-08-25T11:04:26.422Z,997.1
2018-08-25T11:14:27.870Z,997
2018-08-25T11:24:29.658Z,997.2
2018-08-25T11:34:31.308Z,997.2
2018-08-25T11:36:46.283Z,997.2
2018-08-25T11:38:31.016Z,997.2
2018-08-25T11:48:32.183Z,997.2
2018-08-25T11:58:33.861Z,997.2
2018-08-25T12:08:36.202Z,997.3
2018-08-25T12:18:38.621Z,997.3
2018-08-25T12:28:40.739Z,997.4
2018-08-25T12:33:34.280Z,997.3
2018-08-25T12:43:35.860Z,997.3
2018-08-25T12:47:44.746Z,997.4
2018-08-25T12:50:52.938Z,997.4
2018-08-25T13:00:53.466Z,997.5
2018-08-25T13:10:55.468Z,997.4
2018-08-25T13:20:57.270Z,997.5
2018-08-25T13:30:59.353Z,997.4
2018-08-25T13:41:01.038Z,997.4
2018-08-25T13:51:02.814Z,997.5
2018-08-25T14:01:04.611Z,997.6
2018-08-25T14:11:06.128Z,998.2
2018-08-25T14:21:08.227Z,998.2
2018-08-25T14:31:10.215Z,998.4
2018-08-25T14:41:11.598Z,998.7
2018-08-25T14:51:12.951Z,998.8
2018-08-25T15:01:14.391Z,998.8
2018-08-25T15:11:16.234Z,998.7
2018-08-25T15:21:18.209Z,998.7
2018-08-25T15:31:20.210Z,998.8
2018-08-25T15:41:22.237Z,998.7
2018-08-25T15:51:24.127Z,998.8
2018-08-25T16:01:25.983Z,998.9
2018-08-25T16:11:27.784Z,999.1
2018-08-25T16:21:28.801Z,999.1
2018-08-25T16:31:30.533Z,999.1
2018-08-25T16:41:31.999Z,999.3
2018-08-25T16:51:33.749Z,999.4
2018-08-25T17:01:36.005Z,999.4
2018-08-25T17:11:37.760Z,999.5
2018-08-25T17:21:39.843Z,999.6
2018-08-25T17:31:41.650Z,999.6
2018-08-25T17:35:26.574Z,999.8
2018-08-25T17:45:27.946Z,999.7
2018-08-25T17:55:29.965Z,999.9
2018-08-25T18:05:32.021Z,1000
2018-08-25T18:15:33.906Z,1000.1
2018-08-25T18:25:35.858Z,1000.2
2018-08-25T18:35:37.521Z,1000.4
2018-08-25T18:45:39.320Z,1000.6
2018-08-25T18:55:41.371Z,1000.6
2018-08-25T19:05:43.307Z,1000.9
2018-08-25T19:15:45.395Z,1000.9
2018-08-25T19:25:47.635Z,1001.1
2018-08-25T19:35:48.946Z,1001.2
2018-08-25T19:45:50.605Z,1001.3
2018-08-25T19:55:52.913Z,1001.3
2018-08-25T20:05:54.869Z,1001.3
2018-08-25T20:15:56.596Z,1001.4
2018-08-25T20:25:58.173Z,1001.4
2018-08-25T20:36:00.208Z,1001.4
2018-08-25T20:46:02.554Z,1001.4
2018-08-25T20:56:03.889Z,1001.6
2018-08-25T21:06:04.824Z,1001.8
2018-08-25T21:16:06.398Z,1001.9
2018-08-25T21:26:08.293Z,1001.9
2018-08-25T21:36:09.838Z,1002
2018-08-25T21:46:11.723Z,1002.1
2018-08-25T21:56:13.264Z,1002.1
2018-08-25T22:06:15.367Z,1002.1
2018-08-25T22:16:16.713Z,1002.2
2018-08-25T22:26:18.363Z,1002.3
2018-08-25T22:36:20.137Z,1002.3
2018-08-25T22:46:21.926Z,1002.4
2018-08-25T22:56:23.907Z,1002.4
2018-08-25T23:06:25.771Z,1002.5
2018-08-25T23:16:27.805Z,1002.5
2018-08-25T23:26:29.884Z,1002.5
2018-08-25T23:36:31.770Z,1002.6
2018-08-25T23:46:33.370Z,1002.7
2018-08-25T23:56:35.360Z,1002.6
